Terminal Aerodrome Forecast
Issued by NWS

Home | Current Version | Previous Version | Text Only | Print | Product List | Glossary On
Versions: 1 2 3 4 5 6 7 8 9 10 11 12
637
FTUS41 KLWX 292332
TAFMTN
TAF
KMTN 292332Z 3000/3024 17006KT 6SM -SHRA BR OVC040
     FM300200 17005KT 3SM +SHRA BR OVC020
     FM300700 20004KT 3SM -SHRA BR OVC008
     FM301400 34004KT 3SM -SHRA BR OVC010
     FM301600 19004KT 5SM BR OVC040
      AMD NOT SKED 3002/3012=

USA.gov is the U.S. government's official web portal to all federal, state and local government web resources and services.